sensor_id;sensor_type;location;lat;lon;timestamp;P1;durP1;ratioP1;P2;durP2;ratioP2
63621;SDS011;49770;47.544;19.074;2022-08-19T04:31:30;16.62;;;11.88;;
63621;SDS011;49770;47.544;19.074;2022-08-19T04:34:37;16.27;;;11.75;;
63621;SDS011;49770;47.544;19.074;2022-08-19T04:38:00;13.98;;;10.75;;
63621;SDS011;49770;47.544;19.074;2022-08-19T04:41:03;12.25;;;10.63;;
63621;SDS011;49770;47.544;19.074;2022-08-19T04:44:24;12.07;;;10.48;;
63621;SDS011;49770;47.544;19.074;2022-08-19T04:47:27;12.60;;;10.35;;
63621;SDS011;49770;47.544;19.074;2022-08-19T04:50:51;11.85;;;10.50;;
63621;SDS011;49770;47.544;19.074;2022-08-19T04:54:00;15.05;;;10.52;;
63621;SDS011;49770;47.544;19.074;2022-08-19T04:57:05;14.35;;;11.10;;
63621;SDS011;49770;47.544;19.074;2022-08-19T05:00:11;15.38;;;11.23;;
63621;SDS011;49770;47.544;19.074;2022-08-19T05:03:15;14.23;;;10.98;;
63621;SDS011;49770;47.544;19.074;2022-08-19T05:06:19;12.30;;;10.10;;
63621;SDS011;49770;47.544;19.074;2022-08-19T05:09:24;19.42;;;10.63;;
63621;SDS011;49770;47.544;19.074;2022-08-19T05:12:26;13.27;;;10.57;;
63621;SDS011;49770;47.544;19.074;2022-08-19T05:15:31;13.38;;;9.90;;
63621;SDS011;49770;47.544;19.074;2022-08-19T05:18:33;12.35;;;10.55;;
63621;SDS011;49770;47.544;19.074;2022-08-19T05:21:55;13.60;;;10.57;;
63621;SDS011;49770;47.544;19.074;2022-08-19T05:25:17;15.40;;;10.73;;
63621;SDS011;49770;47.544;19.074;2022-08-19T05:28:22;16.70;;;10.77;;
63621;SDS011;49770;47.544;19.074;2022-08-19T05:31:24;11.25;;;9.80;;
63621;SDS011;49770;47.544;19.074;2022-08-19T05:34:27;16.45;;;10.13;;
63621;SDS011;49770;47.544;19.074;2022-08-19T05:37:30;14.87;;;10.20;;
63621;SDS011;49770;47.544;19.074;2022-08-19T05:40:34;12.20;;;10.32;;
63621;SDS011;49770;47.544;19.074;2022-08-19T05:43:40;13.85;;;10.27;;
63621;SDS011;49770;47.544;19.074;2022-08-19T05:46:44;13.00;;;10.45;;
63621;SDS011;49770;47.544;19.074;2022-08-19T05:49:49;16.55;;;10.13;;
63621;SDS011;49770;47.544;19.074;2022-08-19T05:52:55;16.08;;;9.98;;
63621;SDS011;49770;47.544;19.074;2022-08-19T05:55:57;11.75;;;9.55;;
63621;SDS011;49770;47.544;19.074;2022-08-19T05:59:00;15.60;;;10.20;;
63621;SDS011;49770;47.544;19.074;2022-08-19T06:02:03;13.10;;;9.65;;
63621;SDS011;49770;47.544;19.074;2022-08-19T06:05:07;11.10;;;9.73;;
63621;SDS011;49770;47.544;19.074;2022-08-19T06:08:11;11.68;;;9.05;;
63621;SDS011;49770;47.544;19.074;2022-08-19T06:11:24;12.32;;;9.65;;
63621;SDS011;49770;47.544;19.074;2022-08-19T06:14:35;10.93;;;8.95;;
63621;SDS011;49770;47.544;19.074;2022-08-19T06:17:43;10.90;;;9.10;;
63621;SDS011;49770;47.544;19.074;2022-08-19T06:20:48;13.07;;;8.77;;
63621;SDS011;49770;47.544;19.074;2022-08-19T06:23:57;12.07;;;9.38;;
63621;SDS011;49770;47.544;19.074;2022-08-19T06:27:00;17.40;;;9.27;;
63621;SDS011;49770;47.544;19.074;2022-08-19T06:30:04;13.88;;;8.93;;
63621;SDS011;49770;47.544;19.074;2022-08-19T06:33:07;13.43;;;8.55;;
63621;SDS011;49770;47.544;19.074;2022-08-19T06:39:28;11.38;;;8.02;;
63621;SDS011;49770;47.544;19.074;2022-08-19T06:42:35;10.43;;;8.40;;
63621;SDS011;49770;47.544;19.074;2022-08-19T06:45:44;9.95;;;8.15;;
63621;SDS011;49770;47.544;19.074;2022-08-19T06:48:49;9.15;;;8.25;;
63621;SDS011;49770;47.544;19.074;2022-08-19T06:51:52;12.65;;;8.57;;
63621;SDS011;49770;47.544;19.074;2022-08-19T06:54:55;14.38;;;8.35;;
63621;SDS011;49770;47.544;19.074;2022-08-19T06:58:01;10.45;;;8.15;;
63621;SDS011;49770;47.544;19.074;2022-08-19T07:01:06;13.27;;;8.80;;
63621;SDS011;49770;47.544;19.074;2022-08-19T07:04:10;12.75;;;8.45;;
63621;SDS011;49770;47.544;19.074;2022-08-19T07:07:14;15.13;;;8.30;;
63621;SDS011;49770;47.544;19.074;2022-08-19T07:10:22;9.52;;;7.80;;
63621;SDS011;49770;47.544;19.074;2022-08-19T07:13:27;12.75;;;8.10;;
63621;SDS011;49770;47.544;19.074;2022-08-19T07:16:29;10.75;;;8.45;;
63621;SDS011;49770;47.544;19.074;2022-08-19T07:19:33;9.52;;;8.10;;
63621;SDS011;49770;47.544;19.074;2022-08-19T07:22:36;13.85;;;8.55;;
63621;SDS011;49770;47.544;19.074;2022-08-19T07:25:40;12.10;;;8.55;;
63621;SDS011;49770;47.544;19.074;2022-08-19T07:28:43;12.95;;;8.40;;
63621;SDS011;49770;47.544;19.074;2022-08-19T07:31:53;9.97;;;8.07;;
63621;SDS011;49770;47.544;19.074;2022-08-19T07:34:58;10.50;;;7.97;;
63621;SDS011;49770;47.544;19.074;2022-08-19T07:38:03;11.12;;;7.85;;
63621;SDS011;49770;47.544;19.074;2022-08-19T07:41:06;11.65;;;7.53;;
63621;SDS011;49770;47.544;19.074;2022-08-19T07:44:11;9.80;;;7.70;;
63621;SDS011;49770;47.544;19.074;2022-08-19T07:47:14;8.65;;;7.35;;
63621;SDS011;49770;47.544;19.074;2022-08-19T07:50:37;11.85;;;7.93;;
63621;SDS011;49770;47.544;19.074;2022-08-19T07:53:40;9.27;;;7.22;;
63621;SDS011;49770;47.544;19.074;2022-08-19T07:56:45;8.20;;;7.07;;
63621;SDS011;49770;47.544;19.074;2022-08-19T07:59:48;8.25;;;7.25;;
63621;SDS011;49770;47.544;19.074;2022-08-19T08:02:51;7.93;;;7.12;;
63621;SDS011;49770;47.544;19.074;2022-08-19T08:05:57;10.70;;;7.32;;
63621;SDS011;49770;47.544;19.074;2022-08-19T08:09:41;9.25;;;6.93;;
63621;SDS011;49770;47.544;19.074;2022-08-19T08:12:44;10.52;;;6.85;;
63621;SDS011;49770;47.544;19.074;2022-08-19T08:16:06;7.93;;;6.80;;
63621;SDS011;49770;47.544;19.074;2022-08-19T08:19:15;10.57;;;6.72;;
63621;SDS011;49770;47.544;19.074;2022-08-19T08:22:27;7.78;;;6.75;;
63621;SDS011;49770;47.544;19.074;2022-08-19T08:25:48;9.43;;;6.62;;
63621;SDS011;49770;47.544;19.074;2022-08-19T08:28:52;8.90;;;6.95;;
63621;SDS011;49770;47.544;19.074;2022-08-19T08:31:55;8.75;;;6.80;;
63621;SDS011;49770;47.544;19.074;2022-08-19T08:35:01;10.38;;;6.82;;
63621;SDS011;49770;47.544;19.074;2022-08-19T08:38:04;8.77;;;6.05;;
63621;SDS011;49770;47.544;19.074;2022-08-19T08:44:39;7.30;;;6.15;;
63621;SDS011;49770;47.544;19.074;2022-08-19T08:47:51;7.47;;;5.95;;
63621;SDS011;49770;47.544;19.074;2022-08-19T08:50:56;6.70;;;6.10;;
63621;SDS011;49770;47.544;19.074;2022-08-19T08:54:02;6.60;;;5.72;;
63621;SDS011;49770;47.544;19.074;2022-08-19T08:57:12;7.72;;;6.20;;
63621;SDS011;49770;47.544;19.074;2022-08-19T09:00:27;8.47;;;6.03;;
63621;SDS011;49770;47.544;19.074;2022-08-19T09:03:31;8.38;;;6.40;;
63621;SDS011;49770;47.544;19.074;2022-08-19T09:09:44;7.45;;;5.93;;
63621;SDS011;49770;47.544;19.074;2022-08-19T09:12:53;8.23;;;6.00;;
63621;SDS011;49770;47.544;19.074;2022-08-19T09:24:34;7.12;;;6.20;;
63621;SDS011;49770;47.544;19.074;2022-08-19T09:27:38;9.90;;;6.28;;
63621;SDS011;49770;47.544;19.074;2022-08-19T09:30:55;7.53;;;6.12;;
63621;SDS011;49770;47.544;19.074;2022-08-19T09:33:59;11.82;;;6.32;;
63621;SDS011;49770;47.544;19.074;2022-08-19T09:37:02;9.20;;;6.07;;
63621;SDS011;49770;47.544;19.074;2022-08-19T09:40:05;6.47;;;5.87;;
63621;SDS011;49770;47.544;19.074;2022-08-19T09:43:13;10.25;;;6.47;;
63621;SDS011;49770;47.544;19.074;2022-08-19T09:46:15;10.48;;;6.22;;
63621;SDS011;49770;47.544;19.074;2022-08-19T09:49:25;8.90;;;6.32;;
63621;SDS011;49770;47.544;19.074;2022-08-19T09:52:27;6.85;;;6.15;;
63621;SDS011;49770;47.544;19.074;2022-08-19T09:55:35;6.53;;;5.80;;
63621;SDS011;49770;47.544;19.074;2022-08-19T09:58:44;6.15;;;5.55;;
63621;SDS011;49770;47.544;19.074;2022-08-19T10:01:47;7.62;;;6.00;;
63621;SDS011;49770;47.544;19.074;2022-08-19T10:04:51;8.45;;;5.95;;
63621;SDS011;49770;47.544;19.074;2022-08-19T10:08:12;8.35;;;5.70;;
63621;SDS011;49770;47.544;19.074;2022-08-19T10:11:16;10.00;;;5.82;;
63621;SDS011;49770;47.544;19.074;2022-08-19T10:14:37;6.18;;;5.57;;
63621;SDS011;49770;47.544;19.074;2022-08-19T10:17:41;5.97;;;5.50;;
63621;SDS011;49770;47.544;19.074;2022-08-19T10:24:28;10.23;;;6.10;;
63621;SDS011;49770;47.544;19.074;2022-08-19T10:27:31;8.07;;;5.80;;
63621;SDS011;49770;47.544;19.074;2022-08-19T10:30:38;7.37;;;5.80;;
63621;SDS011;49770;47.544;19.074;2022-08-19T10:33:41;8.45;;;5.55;;
63621;SDS011;49770;47.544;19.074;2022-08-19T10:36:56;10.45;;;5.72;;
63621;SDS011;49770;47.544;19.074;2022-08-19T10:40:04;8.77;;;5.87;;
63621;SDS011;49770;47.544;19.074;2022-08-19T10:43:10;6.85;;;5.60;;
63621;SDS011;49770;47.544;19.074;2022-08-19T10:46:13;7.15;;;5.60;;
63621;SDS011;49770;47.544;19.074;2022-08-19T10:49:18;8.35;;;5.68;;
63621;SDS011;49770;47.544;19.074;2022-08-19T10:52:21;7.72;;;5.90;;
63621;SDS011;49770;47.544;19.074;2022-08-19T10:55:40;8.50;;;6.20;;
63621;SDS011;49770;47.544;19.074;2022-08-19T10:59:01;7.90;;;5.80;;
63621;SDS011;49770;47.544;19.074;2022-08-19T11:02:06;7.82;;;6.03;;
63621;SDS011;49770;47.544;19.074;2022-08-19T11:05:12;10.38;;;6.05;;
63621;SDS011;49770;47.544;19.074;2022-08-19T11:08:17;9.05;;;6.15;;
63621;SDS011;49770;47.544;19.074;2022-08-19T11:11:25;7.93;;;5.87;;
63621;SDS011;49770;47.544;19.074;2022-08-19T11:25:58;6.87;;;5.47;;
63621;SDS011;49770;47.544;19.074;2022-08-19T11:29:02;11.10;;;5.75;;
63621;SDS011;49770;47.544;19.074;2022-08-19T11:32:07;10.88;;;5.70;;
63621;SDS011;49770;47.544;19.074;2022-08-19T11:35:12;5.97;;;5.47;;
63621;SDS011;49770;47.544;19.074;2022-08-19T11:38:16;7.18;;;6.47;;
63621;SDS011;49770;47.544;19.074;2022-08-19T11:41:21;8.75;;;6.80;;
63621;SDS011;49770;47.544;19.074;2022-08-19T11:44:25;12.18;;;6.28;;
63621;SDS011;49770;47.544;19.074;2022-08-19T11:47:28;9.68;;;5.87;;
63621;SDS011;49770;47.544;19.074;2022-08-19T11:50:32;9.77;;;6.72;;
63621;SDS011;49770;47.544;19.074;2022-08-19T11:53:36;10.05;;;6.75;;
63621;SDS011;49770;47.544;19.074;2022-08-19T11:56:40;11.45;;;6.07;;
63621;SDS011;49770;47.544;19.074;2022-08-19T11:59:47;6.43;;;5.62;;
63621;SDS011;49770;47.544;19.074;2022-08-19T12:02:51;9.83;;;6.27;;
63621;SDS011;49770;47.544;19.074;2022-08-19T12:05:54;10.77;;;6.57;;
63621;SDS011;49770;47.544;19.074;2022-08-19T12:12:11;12.48;;;6.62;;
63621;SDS011;49770;47.544;19.074;2022-08-19T12:15:13;8.95;;;6.53;;
63621;SDS011;49770;47.544;19.074;2022-08-19T12:18:16;10.70;;;9.02;;
63621;SDS011;49770;47.544;19.074;2022-08-19T12:21:20;14.05;;;8.45;;
63621;SDS011;49770;47.544;19.074;2022-08-19T12:24:25;11.10;;;8.43;;
63621;SDS011;49770;47.544;19.074;2022-08-19T12:27:27;11.52;;;6.10;;
63621;SDS011;49770;47.544;19.074;2022-08-19T12:30:42;11.80;;;6.53;;
63621;SDS011;49770;47.544;19.074;2022-08-19T12:33:45;9.23;;;7.00;;
63621;SDS011;49770;47.544;19.074;2022-08-19T12:36:49;12.25;;;7.05;;
63621;SDS011;49770;47.544;19.074;2022-08-19T12:39:52;10.23;;;9.10;;
63621;SDS011;49770;47.544;19.074;2022-08-19T12:42:55;16.58;;;13.07;;
63621;SDS011;49770;47.544;19.074;2022-08-19T12:45:58;18.58;;;10.60;;
63621;SDS011;49770;47.544;19.074;2022-08-19T12:49:01;17.67;;;10.05;;
63621;SDS011;49770;47.544;19.074;2022-08-19T12:52:27;12.32;;;9.60;;
63621;SDS011;49770;47.544;19.074;2022-08-19T12:55:30;19.75;;;10.27;;
63621;SDS011;49770;47.544;19.074;2022-08-19T12:58:33;15.43;;;10.50;;
63621;SDS011;49770;47.544;19.074;2022-08-19T13:01:36;13.10;;;10.38;;
63621;SDS011;49770;47.544;19.074;2022-08-19T13:04:40;17.30;;;10.90;;
63621;SDS011;49770;47.544;19.074;2022-08-19T13:07:43;16.87;;;11.80;;
63621;SDS011;49770;47.544;19.074;2022-08-19T13:10:46;17.30;;;11.55;;
63621;SDS011;49770;47.544;19.074;2022-08-19T13:13:49;14.63;;;12.25;;
63621;SDS011;49770;47.544;19.074;2022-08-19T13:16:53;14.27;;;12.70;;
63621;SDS011;49770;47.544;19.074;2022-08-19T13:19:56;14.75;;;12.52;;
63621;SDS011;49770;47.544;19.074;2022-08-19T13:22:59;14.32;;;12.82;;
63621;SDS011;49770;47.544;19.074;2022-08-19T13:26:03;18.17;;;14.05;;
63621;SDS011;49770;47.544;19.074;2022-08-19T13:29:07;16.75;;;13.68;;
63621;SDS011;49770;47.544;19.074;2022-08-19T13:32:28;17.85;;;13.05;;
63621;SDS011;49770;47.544;19.074;2022-08-19T13:35:51;15.82;;;12.70;;
63621;SDS011;49770;47.544;19.074;2022-08-19T13:39:00;15.00;;;12.18;;
63621;SDS011;49770;47.544;19.074;2022-08-19T13:42:03;16.25;;;12.32;;
63621;SDS011;49770;47.544;19.074;2022-08-19T13:45:08;19.00;;;11.93;;
63621;SDS011;49770;47.544;19.074;2022-08-19T13:48:11;14.70;;;11.20;;
63621;SDS011;49770;47.544;19.074;2022-08-19T13:51:15;8.57;;;7.18;;
63621;SDS011;49770;47.544;19.074;2022-08-19T13:54:18;16.08;;;6.40;;
63621;SDS011;49770;47.544;19.074;2022-08-19T13:57:21;14.00;;;6.00;;
63621;SDS011;49770;47.544;19.074;2022-08-19T14:00:25;11.38;;;5.60;;
63621;SDS011;49770;47.544;19.074;2022-08-19T14:03:30;12.75;;;5.40;;
63621;SDS011;49770;47.544;19.074;2022-08-19T14:06:33;12.20;;;5.50;;
63621;SDS011;49770;47.544;19.074;2022-08-19T14:09:36;13.13;;;6.95;;
63621;SDS011;49770;47.544;19.074;2022-08-19T14:12:39;11.77;;;6.50;;
63621;SDS011;49770;47.544;19.074;2022-08-19T14:15:42;30.70;;;6.80;;
63621;SDS011;49770;47.544;19.074;2022-08-19T14:18:45;40.97;;;6.60;;
63621;SDS011;49770;47.544;19.074;2022-08-19T14:21:48;63.53;;;7.50;;
63621;SDS011;49770;47.544;19.074;2022-08-19T14:24:51;39.00;;;6.55;;
63621;SDS011;49770;47.544;19.074;2022-08-19T14:27:54;31.80;;;6.50;;
63621;SDS011;49770;47.544;19.074;2022-08-19T14:30:59;28.52;;;5.72;;
63621;SDS011;49770;47.544;19.074;2022-08-19T14:34:04;35.45;;;6.40;;
63621;SDS011;49770;47.544;19.074;2022-08-19T14:37:07;21.30;;;6.05;;
63621;SDS011;49770;47.544;19.074;2022-08-19T14:40:17;19.08;;;5.43;;
63621;SDS011;49770;47.544;19.074;2022-08-19T14:43:23;24.73;;;5.70;;
63621;SDS011;49770;47.544;19.074;2022-08-19T14:46:27;15.40;;;4.95;;
63621;SDS011;49770;47.544;19.074;2022-08-19T14:49:30;23.15;;;5.00;;
63621;SDS011;49770;47.544;19.074;2022-08-19T14:52:45;22.23;;;5.97;;
63621;SDS011;49770;47.544;19.074;2022-08-19T14:55:49;43.90;;;6.05;;
63621;SDS011;49770;47.544;19.074;2022-08-19T14:58:55;26.80;;;5.37;;
